Oasis of the Seas — C6XS7 — position and weather

sailwx.info

Track history (hours):
 
Tides and Currents Weather Stations Pressure Air Temp Water Temp Dewpoint Dewpoint Depression Visibility Wind Speed Wind Dir Waves Ship Positions

Oasis of the Seas

Last reported at 2015-Jan-28 23:11 UTC. Time now 2015-Jan-30 15:25 UTC.
Position N 18°09' W 063°22'.

Length 360 m; draft 9.3 m.

Type: Passenger vessel. MMSI: 311020600.

Date/timePositionNaut miles runAvg speedWind from/ knotsBaromVisibWave heightAir tempDewpointWater temp
2015-Jan-28 23:11N 18°09' W 063°22'1419.3
2015-Jan-28 22:28N 18°01' W 063°10'6 0.6
2015-Jan-28 12:18N 18°00' W 063°04'7 8.8
2015-Jan-28 11:31N 18°00' W 063°11'9 9.1
2015-Jan-28 10:33N 18°00' W 063°20'9 8.8
2015-Jan-28 09:33N 18°00' W 063°29'10 8.9
2015-Jan-28 08:29N 18°01' W 063°39'8 9.0
2015-Jan-28 07:34N 18°01' W 063°48'  
2015-Jan-24 23:32N 26°07' W 079°45'1515.2
2015-Jan-24 22:33N 26°06' W 080°01'5 5.1
2015-Jan-24 21:31N 26°05' W 080°07'0 0.0
2015-Jan-24 20:31N 26°05' W 080°07'0 0.0
2015-Jan-24 19:31N 26°05' W 080°07'0 0.0
2015-Jan-24 18:31N 26°05' W 080°07'0 0.0
2015-Jan-24 17:22N 26°05' W 080°07'0 0.0
2015-Jan-24 16:22N 26°05' W 080°07'0 0.0
2015-Jan-24 15:25N 26°05' W 080°07'0 0.0
2015-Jan-24 14:25N 26°05' W 080°07'0 0.0
2015-Jan-24 13:28N 26°05' W 080°07'0 0.0
2015-Jan-24 12:28N 26°05' W 080°07'0 0.0
2015-Jan-24 11:28N 26°05' W 080°07'0 0.1
2015-Jan-24 10:33N 26°05' W 080°07'9 8.6
2015-Jan-24 09:33N 26°01' W 079°59'1615.7
2015-Jan-24 08:33N 25°45' W 079°56'49915.4
2015-Jan-23 00:09N 20°32' W 086°59'3 4.9
2015-Jan-22 23:30N 20°29' W 086°59'0 0.0
2015-Jan-22 22:30N 20°29' W 086°59'0 0.0
2015-Jan-22 21:30N 20°29' W 086°59'0 0.0
2015-Jan-22 20:30N 20°29' W 086°59'0 0.0
2015-Jan-22 19:30N 20°29' W 086°59'0 0.0
2015-Jan-22 18:30N 20°29' W 086°59'0 0.0
2015-Jan-22 17:30N 20°29' W 086°59'0 0.0
2015-Jan-22 16:33N 20°29' W 086°59'0 0.0
2015-Jan-22 15:33N 20°29' W 086°59'0 0.0
2015-Jan-22 14:33N 20°29' W 086°59'0 0.0
2015-Jan-22 13:33N 20°29' W 086°59'0 0.2
2015-Jan-22 12:33N 20°29' W 086°59'  
Track history (hours):
 
Tides and Currents Weather Stations Pressure Air Temp Water Temp Dewpoint Dewpoint Depression Visibility Wind Speed Wind Dir Waves Ship Positions

Oasis of the Seas

Last reported at 2015-Jan-28 23:11 UTC. Time now 2015-Jan-30 15:25 UTC.
Position N 18°09' W 063°22'.

Length 360 m; draft 9.3 m.

Type: Passenger vessel. MMSI: 311020600.

Date/timePositionNaut miles runAvg speedWind from/ knotsBaromVisibWave heightAir tempDewpointWater temp
2015-Jan-28 23:11N 18°09' W 063°22'1419.3
2015-Jan-28 22:28N 18°01' W 063°10'6 0.6
2015-Jan-28 12:18N 18°00' W 063°04'7 8.8
2015-Jan-28 11:31N 18°00' W 063°11'9 9.1
2015-Jan-28 10:33N 18°00' W 063°20'9 8.8
2015-Jan-28 09:33N 18°00' W 063°29'10 8.9
2015-Jan-28 08:29N 18°01' W 063°39'8 9.0
2015-Jan-28 07:34N 18°01' W 063°48'  
2015-Jan-24 23:32N 26°07' W 079°45'1515.2
2015-Jan-24 22:33N 26°06' W 080°01'5 5.1
2015-Jan-24 21:31N 26°05' W 080°07'0 0.0
2015-Jan-24 20:31N 26°05' W 080°07'0 0.0
2015-Jan-24 19:31N 26°05' W 080°07'0 0.0
2015-Jan-24 18:31N 26°05' W 080°07'0 0.0
2015-Jan-24 17:22N 26°05' W 080°07'0 0.0
2015-Jan-24 16:22N 26°05' W 080°07'0 0.0
2015-Jan-24 15:25N 26°05' W 080°07'0 0.0
2015-Jan-24 14:25N 26°05' W 080°07'0 0.0
2015-Jan-24 13:28N 26°05' W 080°07'0 0.0
2015-Jan-24 12:28N 26°05' W 080°07'0 0.0
2015-Jan-24 11:28N 26°05' W 080°07'0 0.1
2015-Jan-24 10:33N 26°05' W 080°07'9 8.6
2015-Jan-24 09:33N 26°01' W 079°59'1615.7
2015-Jan-24 08:33N 25°45' W 079°56'49915.4
2015-Jan-23 00:09N 20°32' W 086°59'3 4.9
2015-Jan-22 23:30N 20°29' W 086°59'0 0.0
2015-Jan-22 22:30N 20°29' W 086°59'0 0.0
2015-Jan-22 21:30N 20°29' W 086°59'0 0.0
2015-Jan-22 20:30N 20°29' W 086°59'0 0.0
2015-Jan-22 19:30N 20°29' W 086°59'0 0.0
2015-Jan-22 18:30N 20°29' W 086°59'0 0.0
2015-Jan-22 17:30N 20°29' W 086°59'0 0.0
2015-Jan-22 16:33N 20°29' W 086°59'0 0.0
2015-Jan-22 15:33N 20°29' W 086°59'0 0.0
2015-Jan-22 14:33N 20°29' W 086°59'0 0.0
2015-Jan-22 13:33N 20°29' W 086°59'0 0.2
2015-Jan-22 12:33N 20°29' W 086°59'  

Dump ship's entire track history